sensor_id;sensor_type;location;lat;lon;timestamp;P1;durP1;ratioP1;P2;durP2;ratioP2
24685;SDS011;12804;51.176;4.452;2024-03-17T00:01:37;4.18;;;3.40;;
24685;SDS011;12804;51.176;4.452;2024-03-17T00:04:03;4.38;;;3.33;;
24685;SDS011;12804;51.176;4.452;2024-03-17T00:06:29;7.68;;;3.45;;
24685;SDS011;12804;51.176;4.452;2024-03-17T00:08:55;4.20;;;3.22;;
24685;SDS011;12804;51.176;4.452;2024-03-17T00:11:21;6.38;;;3.40;;
24685;SDS011;12804;51.176;4.452;2024-03-17T00:13:47;5.47;;;3.30;;
24685;SDS011;12804;51.176;4.452;2024-03-17T00:16:13;4.22;;;3.22;;
24685;SDS011;12804;51.176;4.452;2024-03-17T00:18:42;5.18;;;3.08;;
24685;SDS011;12804;51.176;4.452;2024-03-17T00:21:08;5.07;;;3.38;;
24685;SDS011;12804;51.176;4.452;2024-03-17T00:23:34;5.93;;;3.25;;
24685;SDS011;12804;51.176;4.452;2024-03-17T00:25:59;6.97;;;3.97;;
24685;SDS011;12804;51.176;4.452;2024-03-17T00:28:25;5.55;;;3.70;;
24685;SDS011;12804;51.176;4.452;2024-03-17T00:30:51;5.50;;;3.60;;
24685;SDS011;12804;51.176;4.452;2024-03-17T00:33:17;5.80;;;3.22;;
24685;SDS011;12804;51.176;4.452;2024-03-17T00:35:44;4.78;;;3.47;;
24685;SDS011;12804;51.176;4.452;2024-03-17T00:38:10;6.20;;;3.45;;
24685;SDS011;12804;51.176;4.452;2024-03-17T00:40:37;6.00;;;3.20;;
24685;SDS011;12804;51.176;4.452;2024-03-17T00:43:03;3.83;;;3.30;;
24685;SDS011;12804;51.176;4.452;2024-03-17T00:45:29;4.60;;;3.22;;
24685;SDS011;12804;51.176;4.452;2024-03-17T00:47:55;5.68;;;2.85;;
24685;SDS011;12804;51.176;4.452;2024-03-17T00:50:21;4.90;;;3.55;;
24685;SDS011;12804;51.176;4.452;2024-03-17T00:52:46;4.03;;;2.92;;
24685;SDS011;12804;51.176;4.452;2024-03-17T00:55:12;5.05;;;3.47;;
24685;SDS011;12804;51.176;4.452;2024-03-17T00:57:39;3.75;;;2.97;;
24685;SDS011;12804;51.176;4.452;2024-03-17T01:00:06;4.60;;;2.92;;
24685;SDS011;12804;51.176;4.452;2024-03-17T01:02:35;5.45;;;3.60;;
24685;SDS011;12804;51.176;4.452;2024-03-17T01:05:01;6.13;;;3.65;;
24685;SDS011;12804;51.176;4.452;2024-03-17T01:07:26;5.80;;;3.10;;
24685;SDS011;12804;51.176;4.452;2024-03-17T01:09:52;4.68;;;3.20;;
24685;SDS011;12804;51.176;4.452;2024-03-17T01:12:19;5.25;;;3.28;;
24685;SDS011;12804;51.176;4.452;2024-03-17T01:14:45;5.07;;;3.40;;
24685;SDS011;12804;51.176;4.452;2024-03-17T01:17:10;6.95;;;3.50;;
24685;SDS011;12804;51.176;4.452;2024-03-17T01:19:36;4.53;;;3.55;;
24685;SDS011;12804;51.176;4.452;2024-03-17T01:22:02;6.53;;;3.78;;
24685;SDS011;12804;51.176;4.452;2024-03-17T01:24:28;7.30;;;3.50;;
24685;SDS011;12804;51.176;4.452;2024-03-17T01:26:57;5.22;;;3.70;;
24685;SDS011;12804;51.176;4.452;2024-03-17T01:29:24;6.07;;;3.65;;
24685;SDS011;12804;51.176;4.452;2024-03-17T01:31:50;4.18;;;3.08;;
24685;SDS011;12804;51.176;4.452;2024-03-17T01:34:16;4.07;;;3.28;;
24685;SDS011;12804;51.176;4.452;2024-03-17T01:36:43;6.25;;;3.67;;
24685;SDS011;12804;51.176;4.452;2024-03-17T01:39:09;6.15;;;3.30;;
24685;SDS011;12804;51.176;4.452;2024-03-17T01:41:35;6.80;;;4.07;;
24685;SDS011;12804;51.176;4.452;2024-03-17T01:44:00;4.75;;;3.35;;
24685;SDS011;12804;51.176;4.452;2024-03-17T01:46:26;6.18;;;3.45;;
24685;SDS011;12804;51.176;4.452;2024-03-17T01:48:52;8.27;;;3.97;;
24685;SDS011;12804;51.176;4.452;2024-03-17T01:51:19;4.70;;;3.60;;
24685;SDS011;12804;51.176;4.452;2024-03-17T01:53:45;5.80;;;4.10;;
24685;SDS011;12804;51.176;4.452;2024-03-17T01:56:12;4.18;;;3.65;;
24685;SDS011;12804;51.176;4.452;2024-03-17T01:58:42;4.70;;;3.70;;
24685;SDS011;12804;51.176;4.452;2024-03-17T02:01:10;6.82;;;3.80;;
24685;SDS011;12804;51.176;4.452;2024-03-17T02:03:39;8.35;;;4.13;;
24685;SDS011;12804;51.176;4.452;2024-03-17T02:06:07;7.22;;;4.10;;
24685;SDS011;12804;51.176;4.452;2024-03-17T02:08:55;8.05;;;4.50;;
24685;SDS011;12804;51.176;4.452;2024-03-17T02:16:20;9.02;;;4.40;;
24685;SDS011;12804;51.176;4.452;2024-03-17T02:18:47;4.40;;;3.53;;
24685;SDS011;12804;51.176;4.452;2024-03-17T02:21:13;6.20;;;4.20;;
24685;SDS011;12804;51.176;4.452;2024-03-17T02:23:41;5.18;;;4.15;;
24685;SDS011;12804;51.176;4.452;2024-03-17T02:26:07;5.68;;;4.50;;
24685;SDS011;12804;51.176;4.452;2024-03-17T02:28:40;6.45;;;4.00;;
24685;SDS011;12804;51.176;4.452;2024-03-17T02:31:08;8.43;;;4.35;;
24685;SDS011;12804;51.176;4.452;2024-03-17T02:33:35;6.43;;;4.03;;
24685;SDS011;12804;51.176;4.452;2024-03-17T02:36:01;7.63;;;4.20;;
24685;SDS011;12804;51.176;4.452;2024-03-17T02:38:34;5.70;;;3.88;;
24685;SDS011;12804;51.176;4.452;2024-03-17T02:41:20;6.25;;;3.97;;
24685;SDS011;12804;51.176;4.452;2024-03-17T02:43:46;6.45;;;4.38;;
24685;SDS011;12804;51.176;4.452;2024-03-17T02:46:13;6.07;;;4.30;;
24685;SDS011;12804;51.176;4.452;2024-03-17T02:48:44;5.57;;;4.20;;
24685;SDS011;12804;51.176;4.452;2024-03-17T02:51:15;4.75;;;4.15;;
24685;SDS011;12804;51.176;4.452;2024-03-17T02:53:43;6.97;;;4.75;;
24685;SDS011;12804;51.176;4.452;2024-03-17T02:56:12;5.70;;;4.32;;
24685;SDS011;12804;51.176;4.452;2024-03-17T02:58:42;6.40;;;4.55;;
24685;SDS011;12804;51.176;4.452;2024-03-17T03:01:09;6.70;;;4.45;;
24685;SDS011;12804;51.176;4.452;2024-03-17T03:03:35;6.85;;;4.60;;
24685;SDS011;12804;51.176;4.452;2024-03-17T03:06:01;5.90;;;4.65;;
24685;SDS011;12804;51.176;4.452;2024-03-17T03:08:40;5.88;;;4.53;;
24685;SDS011;12804;51.176;4.452;2024-03-17T03:11:07;6.60;;;4.43;;
24685;SDS011;12804;51.176;4.452;2024-03-17T03:13:40;6.63;;;4.55;;
24685;SDS011;12804;51.176;4.452;2024-03-17T03:16:07;7.93;;;5.10;;
24685;SDS011;12804;51.176;4.452;2024-03-17T03:18:35;7.93;;;5.55;;
24685;SDS011;12804;51.176;4.452;2024-03-17T03:21:01;7.35;;;5.20;;
24685;SDS011;12804;51.176;4.452;2024-03-17T03:23:27;6.38;;;4.93;;
24685;SDS011;12804;51.176;4.452;2024-03-17T03:25:56;5.82;;;5.18;;
24685;SDS011;12804;51.176;4.452;2024-03-17T03:28:28;7.00;;;5.28;;
24685;SDS011;12804;51.176;4.452;2024-03-17T03:30:55;9.13;;;5.68;;
24685;SDS011;12804;51.176;4.452;2024-03-17T03:33:21;7.97;;;5.40;;
24685;SDS011;12804;51.176;4.452;2024-03-17T03:35:47;8.20;;;5.25;;
24685;SDS011;12804;51.176;4.452;2024-03-17T03:38:13;8.57;;;5.78;;
24685;SDS011;12804;51.176;4.452;2024-03-17T03:40:43;7.95;;;5.22;;
24685;SDS011;12804;51.176;4.452;2024-03-17T03:43:09;8.80;;;5.85;;
24685;SDS011;12804;51.176;4.452;2024-03-17T03:45:35;7.40;;;5.40;;
24685;SDS011;12804;51.176;4.452;2024-03-17T03:48:02;7.43;;;5.13;;
24685;SDS011;12804;51.176;4.452;2024-03-17T03:50:30;10.40;;;5.60;;
24685;SDS011;12804;51.176;4.452;2024-03-17T03:52:56;9.27;;;6.32;;
24685;SDS011;12804;51.176;4.452;2024-03-17T03:55:22;9.10;;;5.57;;
24685;SDS011;12804;51.176;4.452;2024-03-17T03:57:49;9.55;;;6.10;;
24685;SDS011;12804;51.176;4.452;2024-03-17T04:00:17;10.65;;;6.30;;
24685;SDS011;12804;51.176;4.452;2024-03-17T04:02:47;10.38;;;6.05;;
24685;SDS011;12804;51.176;4.452;2024-03-17T04:05:14;11.18;;;6.47;;
24685;SDS011;12804;51.176;4.452;2024-03-17T04:07:41;8.80;;;6.00;;
24685;SDS011;12804;51.176;4.452;2024-03-17T04:10:08;10.48;;;6.72;;
24685;SDS011;12804;51.176;4.452;2024-03-17T04:12:35;9.93;;;6.63;;
24685;SDS011;12804;51.176;4.452;2024-03-17T04:15:01;10.10;;;6.30;;
24685;SDS011;12804;51.176;4.452;2024-03-17T04:17:27;10.02;;;6.35;;
24685;SDS011;12804;51.176;4.452;2024-03-17T04:19:54;10.73;;;6.40;;
24685;SDS011;12804;51.176;4.452;2024-03-17T04:22:20;10.70;;;6.70;;
24685;SDS011;12804;51.176;4.452;2024-03-17T04:24:49;9.13;;;6.20;;
24685;SDS011;12804;51.176;4.452;2024-03-17T04:27:19;9.75;;;6.63;;
24685;SDS011;12804;51.176;4.452;2024-03-17T04:29:52;11.75;;;7.07;;
24685;SDS011;12804;51.176;4.452;2024-03-17T04:32:19;8.63;;;6.05;;
24685;SDS011;12804;51.176;4.452;2024-03-17T04:34:45;14.57;;;6.90;;
24685;SDS011;12804;51.176;4.452;2024-03-17T04:37:12;9.82;;;6.78;;
24685;SDS011;12804;51.176;4.452;2024-03-17T04:39:38;10.07;;;6.90;;
24685;SDS011;12804;51.176;4.452;2024-03-17T04:42:10;9.23;;;6.95;;
24685;SDS011;12804;51.176;4.452;2024-03-17T04:44:40;11.07;;;7.35;;
24685;SDS011;12804;51.176;4.452;2024-03-17T04:47:06;10.93;;;6.70;;
24685;SDS011;12804;51.176;4.452;2024-03-17T04:49:34;12.35;;;6.88;;
24685;SDS011;12804;51.176;4.452;2024-03-17T04:52:04;9.68;;;6.75;;
24685;SDS011;12804;51.176;4.452;2024-03-17T04:54:31;15.60;;;7.28;;
24685;SDS011;12804;51.176;4.452;2024-03-17T04:56:57;10.48;;;6.90;;
24685;SDS011;12804;51.176;4.452;2024-03-17T04:59:23;12.27;;;8.23;;
24685;SDS011;12804;51.176;4.452;2024-03-17T05:01:49;8.50;;;6.35;;
24685;SDS011;12804;51.176;4.452;2024-03-17T05:04:15;11.10;;;6.65;;
24685;SDS011;12804;51.176;4.452;2024-03-17T05:06:41;8.73;;;6.10;;
24685;SDS011;12804;51.176;4.452;2024-03-17T05:09:11;10.60;;;6.50;;
24685;SDS011;12804;51.176;4.452;2024-03-17T05:11:44;12.82;;;6.43;;
24685;SDS011;12804;51.176;4.452;2024-03-17T05:14:10;9.82;;;6.45;;
24685;SDS011;12804;51.176;4.452;2024-03-17T05:16:36;9.57;;;6.10;;
24685;SDS011;12804;51.176;4.452;2024-03-17T05:19:02;8.15;;;6.03;;
24685;SDS011;12804;51.176;4.452;2024-03-17T05:21:28;9.82;;;6.35;;
24685;SDS011;12804;51.176;4.452;2024-03-17T05:23:55;11.35;;;7.40;;
24685;SDS011;12804;51.176;4.452;2024-03-17T05:26:24;7.97;;;5.90;;
24685;SDS011;12804;51.176;4.452;2024-03-17T05:28:50;8.57;;;5.97;;
24685;SDS011;12804;51.176;4.452;2024-03-17T05:31:17;7.65;;;5.80;;
24685;SDS011;12804;51.176;4.452;2024-03-17T05:33:46;8.43;;;6.18;;
24685;SDS011;12804;51.176;4.452;2024-03-17T05:36:11;11.10;;;5.90;;
24685;SDS011;12804;51.176;4.452;2024-03-17T05:38:37;9.20;;;6.30;;
24685;SDS011;12804;51.176;4.452;2024-03-17T05:41:04;10.48;;;5.43;;
24685;SDS011;12804;51.176;4.452;2024-03-17T05:43:32;8.63;;;5.70;;
24685;SDS011;12804;51.176;4.452;2024-03-17T05:46:01;8.70;;;5.82;;
24685;SDS011;12804;51.176;4.452;2024-03-17T05:48:28;7.35;;;5.35;;
24685;SDS011;12804;51.176;4.452;2024-03-17T05:50:57;11.13;;;6.22;;
24685;SDS011;12804;51.176;4.452;2024-03-17T05:53:23;8.02;;;6.05;;
24685;SDS011;12804;51.176;4.452;2024-03-17T05:55:49;8.77;;;6.07;;
24685;SDS011;12804;51.176;4.452;2024-03-17T05:58:15;10.52;;;6.00;;
24685;SDS011;12804;51.176;4.452;2024-03-17T06:00:41;10.50;;;6.45;;
24685;SDS011;12804;51.176;4.452;2024-03-17T06:03:08;9.35;;;5.95;;
24685;SDS011;12804;51.176;4.452;2024-03-17T06:05:34;10.07;;;5.45;;
24685;SDS011;12804;51.176;4.452;2024-03-17T06:08:01;9.85;;;5.60;;
24685;SDS011;12804;51.176;4.452;2024-03-17T06:10:28;7.75;;;5.30;;
24685;SDS011;12804;51.176;4.452;2024-03-17T06:12:55;10.00;;;5.85;;
24685;SDS011;12804;51.176;4.452;2024-03-17T06:15:22;7.75;;;5.00;;
24685;SDS011;12804;51.176;4.452;2024-03-17T06:17:49;10.25;;;6.03;;
24685;SDS011;12804;51.176;4.452;2024-03-17T06:20:19;8.38;;;5.28;;
24685;SDS011;12804;51.176;4.452;2024-03-17T06:22:45;9.70;;;5.20;;
24685;SDS011;12804;51.176;4.452;2024-03-17T06:25:11;7.47;;;5.53;;
24685;SDS011;12804;51.176;4.452;2024-03-17T06:27:37;9.50;;;5.75;;
24685;SDS011;12804;51.176;4.452;2024-03-17T06:30:03;9.98;;;5.38;;
24685;SDS011;12804;51.176;4.452;2024-03-17T06:32:30;9.27;;;5.53;;
24685;SDS011;12804;51.176;4.452;2024-03-17T06:34:58;11.20;;;5.97;;
24685;SDS011;12804;51.176;4.452;2024-03-17T06:37:27;10.43;;;5.70;;
24685;SDS011;12804;51.176;4.452;2024-03-17T06:39:53;8.77;;;5.75;;
24685;SDS011;12804;51.176;4.452;2024-03-17T06:42:18;10.65;;;5.30;;
24685;SDS011;12804;51.176;4.452;2024-03-17T06:44:44;8.63;;;5.03;;
24685;SDS011;12804;51.176;4.452;2024-03-17T06:47:10;9.55;;;5.50;;
24685;SDS011;12804;51.176;4.452;2024-03-17T06:49:36;8.40;;;5.43;;
24685;SDS011;12804;51.176;4.452;2024-03-17T06:52:02;10.43;;;5.68;;
24685;SDS011;12804;51.176;4.452;2024-03-17T06:54:28;7.43;;;5.00;;
24685;SDS011;12804;51.176;4.452;2024-03-17T06:56:54;7.75;;;5.00;;
24685;SDS011;12804;51.176;4.452;2024-03-17T06:59:19;8.80;;;5.47;;
24685;SDS011;12804;51.176;4.452;2024-03-17T07:01:49;8.55;;;4.88;;
24685;SDS011;12804;51.176;4.452;2024-03-17T07:04:15;7.53;;;5.63;;
24685;SDS011;12804;51.176;4.452;2024-03-17T07:06:46;7.15;;;5.07;;
24685;SDS011;12804;51.176;4.452;2024-03-17T07:09:12;6.78;;;5.03;;
24685;SDS011;12804;51.176;4.452;2024-03-17T07:11:38;7.43;;;5.47;;
24685;SDS011;12804;51.176;4.452;2024-03-17T07:14:03;8.10;;;5.63;;
24685;SDS011;12804;51.176;4.452;2024-03-17T07:16:29;9.88;;;5.70;;
24685;SDS011;12804;51.176;4.452;2024-03-17T07:18:57;9.15;;;5.45;;
24685;SDS011;12804;51.176;4.452;2024-03-17T07:21:24;8.77;;;5.25;;
24685;SDS011;12804;51.176;4.452;2024-03-17T07:23:50;7.65;;;5.40;;
24685;SDS011;12804;51.176;4.452;2024-03-17T07:26:16;8.52;;;5.47;;
24685;SDS011;12804;51.176;4.452;2024-03-17T07:28:42;8.82;;;5.50;;
24685;SDS011;12804;51.176;4.452;2024-03-17T07:31:10;7.95;;;5.20;;
24685;SDS011;12804;51.176;4.452;2024-03-17T07:33:36;8.27;;;4.78;;
24685;SDS011;12804;51.176;4.452;2024-03-17T07:36:03;7.22;;;4.50;;
24685;SDS011;12804;51.176;4.452;2024-03-17T07:38:30;6.47;;;4.60;;
24685;SDS011;12804;51.176;4.452;2024-03-17T07:43:24;6.00;;;4.63;;
24685;SDS011;12804;51.176;4.452;2024-03-17T07:46:23;8.05;;;5.00;;
24685;SDS011;12804;51.176;4.452;2024-03-17T07:48:43;6.70;;;4.53;;
24685;SDS011;12804;51.176;4.452;2024-03-17T07:51:13;7.32;;;5.35;;
24685;SDS011;12804;51.176;4.452;2024-03-17T07:53:45;5.97;;;4.82;;
24685;SDS011;12804;51.176;4.452;2024-03-17T07:56:14;6.93;;;4.60;;
24685;SDS011;12804;51.176;4.452;2024-03-17T07:58:41;7.30;;;5.00;;
24685;SDS011;12804;51.176;4.452;2024-03-17T08:01:09;6.63;;;5.13;;
24685;SDS011;12804;51.176;4.452;2024-03-17T08:03:38;6.43;;;4.57;;
24685;SDS011;12804;51.176;4.452;2024-03-17T08:06:06;6.13;;;4.95;;
24685;SDS011;12804;51.176;4.452;2024-03-17T08:08:33;6.97;;;4.60;;
24685;SDS011;12804;51.176;4.452;2024-03-17T08:11:00;6.53;;;4.50;;
24685;SDS011;12804;51.176;4.452;2024-03-17T08:13:29;7.45;;;5.22;;
24685;SDS011;12804;51.176;4.452;2024-03-17T08:16:00;8.68;;;4.50;;
24685;SDS011;12804;51.176;4.452;2024-03-17T08:18:28;7.68;;;4.45;;
24685;SDS011;12804;51.176;4.452;2024-03-17T08:20:54;7.70;;;5.25;;
24685;SDS011;12804;51.176;4.452;2024-03-17T08:23:20;6.45;;;4.20;;
24685;SDS011;12804;51.176;4.452;2024-03-17T08:25:53;5.72;;;4.30;;
24685;SDS011;12804;51.176;4.452;2024-03-17T08:28:22;9.10;;;4.35;;
24685;SDS011;12804;51.176;4.452;2024-03-17T08:30:52;11.60;;;4.63;;
24685;SDS011;12804;51.176;4.452;2024-03-17T08:33:22;6.90;;;4.43;;
24685;SDS011;12804;51.176;4.452;2024-03-17T08:35:58;6.07;;;4.38;;
24685;SDS011;12804;51.176;4.452;2024-03-17T08:38:24;7.45;;;4.20;;
24685;SDS011;12804;51.176;4.452;2024-03-17T08:40:51;6.28;;;4.40;;
24685;SDS011;12804;51.176;4.452;2024-03-17T08:43:18;5.22;;;4.15;;
24685;SDS011;12804;51.176;4.452;2024-03-17T08:45:45;8.88;;;4.43;;
24685;SDS011;12804;51.176;4.452;2024-03-17T08:48:19;6.68;;;3.85;;
24685;SDS011;12804;51.176;4.452;2024-03-17T08:50:51;6.10;;;3.55;;
24685;SDS011;12804;51.176;4.452;2024-03-17T08:53:19;6.57;;;3.75;;
24685;SDS011;12804;51.176;4.452;2024-03-17T08:55:45;4.60;;;3.70;;
24685;SDS011;12804;51.176;4.452;2024-03-17T08:58:11;6.63;;;3.72;;
24685;SDS011;12804;51.176;4.452;2024-03-17T09:00:37;5.70;;;3.53;;
24685;SDS011;12804;51.176;4.452;2024-03-17T09:03:03;5.60;;;3.80;;
24685;SDS011;12804;51.176;4.452;2024-03-17T09:05:29;4.65;;;3.45;;
24685;SDS011;12804;51.176;4.452;2024-03-17T09:07:58;6.22;;;3.92;;
24685;SDS011;12804;51.176;4.452;2024-03-17T09:10:24;6.30;;;3.30;;
24685;SDS011;12804;51.176;4.452;2024-03-17T09:12:50;6.13;;;3.22;;
24685;SDS011;12804;51.176;4.452;2024-03-17T09:15:15;6.20;;;3.65;;
24685;SDS011;12804;51.176;4.452;2024-03-17T09:17:42;5.32;;;3.45;;
24685;SDS011;12804;51.176;4.452;2024-03-17T09:20:10;6.07;;;3.28;;
24685;SDS011;12804;51.176;4.452;2024-03-17T09:22:37;6.13;;;3.50;;
24685;SDS011;12804;51.176;4.452;2024-03-17T09:25:06;4.20;;;3.00;;
24685;SDS011;12804;51.176;4.452;2024-03-17T09:27:33;6.90;;;3.10;;
24685;SDS011;12804;51.176;4.452;2024-03-17T09:30:02;5.80;;;3.10;;
24685;SDS011;12804;51.176;4.452;2024-03-17T09:32:32;6.43;;;3.00;;
24685;SDS011;12804;51.176;4.452;2024-03-17T09:34:57;5.35;;;3.00;;
24685;SDS011;12804;51.176;4.452;2024-03-17T09:37:24;4.63;;;3.38;;
24685;SDS011;12804;51.176;4.452;2024-03-17T09:39:50;3.92;;;2.70;;
24685;SDS011;12804;51.176;4.452;2024-03-17T09:42:19;5.43;;;2.80;;
24685;SDS011;12804;51.176;4.452;2024-03-17T09:44:48;4.53;;;2.70;;
24685;SDS011;12804;51.176;4.452;2024-03-17T09:47:19;7.80;;;2.72;;
24685;SDS011;12804;51.176;4.452;2024-03-17T09:49:46;7.43;;;4.13;;
24685;SDS011;12804;51.176;4.452;2024-03-17T09:52:20;6.45;;;2.80;;
24685;SDS011;12804;51.176;4.452;2024-03-17T09:55:30;3.88;;;2.50;;
24685;SDS011;12804;51.176;4.452;2024-03-17T09:57:40;5.05;;;2.50;;
24685;SDS011;12804;51.176;4.452;2024-03-17T10:00:10;6.22;;;2.67;;
24685;SDS011;12804;51.176;4.452;2024-03-17T10:02:44;4.45;;;2.50;;
24685;SDS011;12804;51.176;4.452;2024-03-17T10:05:22;7.05;;;2.58;;
24685;SDS011;12804;51.176;4.452;2024-03-17T10:07:50;6.63;;;2.10;;
24685;SDS011;12804;51.176;4.452;2024-03-17T10:10:17;5.25;;;2.10;;
24685;SDS011;12804;51.176;4.452;2024-03-17T10:12:49;4.53;;;2.10;;
24685;SDS011;12804;51.176;4.452;2024-03-17T10:15:19;4.70;;;2.05;;
24685;SDS011;12804;51.176;4.452;2024-03-17T10:17:48;3.55;;;1.95;;
24685;SDS011;12804;51.176;4.452;2024-03-17T10:20:18;4.15;;;2.10;;
24685;SDS011;12804;51.176;4.452;2024-03-17T10:25:33;3.38;;;1.88;;
24685;SDS011;12804;51.176;4.452;2024-03-17T10:28:04;2.67;;;2.05;;
24685;SDS011;12804;51.176;4.452;2024-03-17T10:30:39;4.45;;;1.90;;
24685;SDS011;12804;51.176;4.452;2024-03-17T10:33:06;4.32;;;1.98;;
24685;SDS011;12804;51.176;4.452;2024-03-17T10:35:37;3.90;;;1.63;;
24685;SDS011;12804;51.176;4.452;2024-03-17T10:38:04;4.88;;;1.77;;
24685;SDS011;12804;51.176;4.452;2024-03-17T10:40:31;3.72;;;1.70;;
24685;SDS011;12804;51.176;4.452;2024-03-17T10:43:00;6.40;;;2.42;;
24685;SDS011;12804;51.176;4.452;2024-03-17T10:45:26;2.53;;;1.50;;
24685;SDS011;12804;51.176;4.452;2024-03-17T10:48:01;4.57;;;1.67;;
24685;SDS011;12804;51.176;4.452;2024-03-17T10:50:32;4.55;;;1.90;;
24685;SDS011;12804;51.176;4.452;2024-03-17T10:53:03;4.03;;;1.77;;
24685;SDS011;12804;51.176;4.452;2024-03-17T10:55:43;4.60;;;1.60;;
24685;SDS011;12804;51.176;4.452;2024-03-17T11:01:11;6.50;;;1.80;;
24685;SDS011;12804;51.176;4.452;2024-03-17T11:03:39;2.60;;;1.60;;
24685;SDS011;12804;51.176;4.452;2024-03-17T11:06:05;4.53;;;1.52;;
24685;SDS011;12804;51.176;4.452;2024-03-17T11:08:33;3.33;;;1.70;;
24685;SDS011;12804;51.176;4.452;2024-03-17T11:11:01;3.75;;;1.50;;
24685;SDS011;12804;51.176;4.452;2024-03-17T11:13:29;3.58;;;1.58;;
24685;SDS011;12804;51.176;4.452;2024-03-17T11:15:56;4.30;;;1.88;;
24685;SDS011;12804;51.176;4.452;2024-03-17T11:21:06;4.03;;;1.52;;
24685;SDS011;12804;51.176;4.452;2024-03-17T11:23:59;4.95;;;1.98;;
24685;SDS011;12804;51.176;4.452;2024-03-17T11:26:30;4.72;;;1.98;;
24685;SDS011;12804;51.176;4.452;2024-03-17T11:28:57;7.65;;;1.88;;
24685;SDS011;12804;51.176;4.452;2024-03-17T11:31:31;3.30;;;1.58;;
24685;SDS011;12804;51.176;4.452;2024-03-17T11:34:02;3.78;;;1.60;;
24685;SDS011;12804;51.176;4.452;2024-03-17T11:39:05;3.15;;;1.55;;
24685;SDS011;12804;51.176;4.452;2024-03-17T11:41:49;4.07;;;1.92;;
24685;SDS011;12804;51.176;4.452;2024-03-17T11:46:50;4.00;;;1.67;;
24685;SDS011;12804;51.176;4.452;2024-03-17T11:49:21;4.13;;;1.52;;
24685;SDS011;12804;51.176;4.452;2024-03-17T11:51:51;6.85;;;1.92;;
24685;SDS011;12804;51.176;4.452;2024-03-17T11:54:19;4.70;;;1.60;;
24685;SDS011;12804;51.176;4.452;2024-03-17T11:56:50;2.58;;;1.67;;
24685;SDS011;12804;51.176;4.452;2024-03-17T11:59:17;4.20;;;1.67;;
24685;SDS011;12804;51.176;4.452;2024-03-17T12:01:47;5.63;;;1.55;;
24685;SDS011;12804;51.176;4.452;2024-03-17T12:04:14;5.13;;;1.50;;
24685;SDS011;12804;51.176;4.452;2024-03-17T12:06:44;4.13;;;1.63;;
24685;SDS011;12804;51.176;4.452;2024-03-17T12:09:17;3.72;;;1.88;;
24685;SDS011;12804;51.176;4.452;2024-03-17T12:12:04;3.97;;;1.65;;
24685;SDS011;12804;51.176;4.452;2024-03-17T12:14:39;4.35;;;1.73;;
24685;SDS011;12804;51.176;4.452;2024-03-17T12:17:06;5.53;;;1.70;;
24685;SDS011;12804;51.176;4.452;2024-03-17T12:19:33;6.03;;;1.60;;
24685;SDS011;12804;51.176;4.452;2024-03-17T12:22:00;3.30;;;1.23;;
24685;SDS011;12804;51.176;4.452;2024-03-17T12:24:28;3.53;;;1.55;;
24685;SDS011;12804;51.176;4.452;2024-03-17T12:26:56;2.80;;;1.50;;
24685;SDS011;12804;51.176;4.452;2024-03-17T12:32:06;6.43;;;1.88;;
24685;SDS011;12804;51.176;4.452;2024-03-17T12:34:45;5.70;;;1.75;;
24685;SDS011;12804;51.176;4.452;2024-03-17T12:37:20;3.78;;;1.55;;
24685;SDS011;12804;51.176;4.452;2024-03-17T12:39:47;9.55;;;1.70;;
24685;SDS011;12804;51.176;4.452;2024-03-17T12:42:22;3.20;;;1.50;;
24685;SDS011;12804;51.176;4.452;2024-03-17T12:44:53;3.72;;;1.40;;
24685;SDS011;12804;51.176;4.452;2024-03-17T12:47:24;3.95;;;1.40;;
24685;SDS011;12804;51.176;4.452;2024-03-17T12:49:51;2.80;;;1.30;;
24685;SDS011;12804;51.176;4.452;2024-03-17T12:52:25;3.63;;;1.75;;
24685;SDS011;12804;51.176;4.452;2024-03-17T12:57:42;2.63;;;1.33;;
24685;SDS011;12804;51.176;4.452;2024-03-17T13:00:30;4.03;;;1.20;;
24685;SDS011;12804;51.176;4.452;2024-03-17T13:02:57;2.25;;;1.17;;
24685;SDS011;12804;51.176;4.452;2024-03-17T13:05:23;4.10;;;1.70;;
24685;SDS011;12804;51.176;4.452;2024-03-17T13:07:49;3.53;;;1.63;;
24685;SDS011;12804;51.176;4.452;2024-03-17T13:10:16;3.47;;;1.38;;
24685;SDS011;12804;51.176;4.452;2024-03-17T13:12:43;1.70;;;0.95;;
24685;SDS011;12804;51.176;4.452;2024-03-17T13:15:14;4.53;;;1.80;;
24685;SDS011;12804;51.176;4.452;2024-03-17T13:17:43;4.05;;;1.10;;
24685;SDS011;12804;51.176;4.452;2024-03-17T13:20:13;4.55;;;1.35;;
24685;SDS011;12804;51.176;4.452;2024-03-17T13:22:41;3.15;;;1.08;;
24685;SDS011;12804;51.176;4.452;2024-03-17T13:25:09;2.30;;;1.20;;
24685;SDS011;12804;51.176;4.452;2024-03-17T13:27:44;3.53;;;1.08;;
24685;SDS011;12804;51.176;4.452;2024-03-17T13:30:11;3.78;;;1.10;;
24685;SDS011;12804;51.176;4.452;2024-03-17T13:32:38;4.90;;;1.27;;
24685;SDS011;12804;51.176;4.452;2024-03-17T13:35:07;2.53;;;0.93;;
24685;SDS011;12804;51.176;4.452;2024-03-17T13:37:47;3.28;;;1.00;;
24685;SDS011;12804;51.176;4.452;2024-03-17T13:40:14;4.15;;;1.13;;
24685;SDS011;12804;51.176;4.452;2024-03-17T13:42:44;2.80;;;1.10;;
24685;SDS011;12804;51.176;4.452;2024-03-17T13:45:11;4.13;;;0.95;;
24685;SDS011;12804;51.176;4.452;2024-03-17T13:47:39;4.22;;;0.90;;
24685;SDS011;12804;51.176;4.452;2024-03-17T13:50:05;1.48;;;0.80;;
24685;SDS011;12804;51.176;4.452;2024-03-17T13:52:36;4.78;;;0.98;;
24685;SDS011;12804;51.176;4.452;2024-03-17T13:55:03;2.55;;;0.75;;
24685;SDS011;12804;51.176;4.452;2024-03-17T13:57:34;3.05;;;1.00;;
24685;SDS011;12804;51.176;4.452;2024-03-17T14:00:00;2.30;;;1.17;;
24685;SDS011;12804;51.176;4.452;2024-03-17T14:02:37;3.33;;;1.02;;
24685;SDS011;12804;51.176;4.452;2024-03-17T14:05:03;3.38;;;1.08;;
24685;SDS011;12804;51.176;4.452;2024-03-17T14:07:33;3.10;;;1.10;;
24685;SDS011;12804;51.176;4.452;2024-03-17T14:09:59;3.08;;;1.13;;
24685;SDS011;12804;51.176;4.452;2024-03-17T14:12:25;2.47;;;1.23;;
24685;SDS011;12804;51.176;4.452;2024-03-17T14:14:51;3.83;;;1.30;;
24685;SDS011;12804;51.176;4.452;2024-03-17T14:17:18;2.90;;;1.15;;
24685;SDS011;12804;51.176;4.452;2024-03-17T14:19:43;3.05;;;1.20;;
24685;SDS011;12804;51.176;4.452;2024-03-17T14:22:09;2.50;;;1.08;;
24685;SDS011;12804;51.176;4.452;2024-03-17T14:24:35;4.40;;;1.30;;
24685;SDS011;12804;51.176;4.452;2024-03-17T14:27:02;2.70;;;0.90;;
24685;SDS011;12804;51.176;4.452;2024-03-17T14:29:29;4.07;;;1.38;;
24685;SDS011;12804;51.176;4.452;2024-03-17T14:31:54;2.65;;;1.10;;
24685;SDS011;12804;51.176;4.452;2024-03-17T14:34:20;2.13;;;0.98;;
24685;SDS011;12804;51.176;4.452;2024-03-17T14:36:46;3.70;;;1.58;;
24685;SDS011;12804;51.176;4.452;2024-03-17T14:39:12;2.75;;;1.30;;
24685;SDS011;12804;51.176;4.452;2024-03-17T14:41:38;5.72;;;1.48;;
24685;SDS011;12804;51.176;4.452;2024-03-17T14:44:03;4.28;;;1.40;;
24685;SDS011;12804;51.176;4.452;2024-03-17T14:46:29;5.30;;;1.30;;
24685;SDS011;12804;51.176;4.452;2024-03-17T14:48:55;3.50;;;1.08;;
24685;SDS011;12804;51.176;4.452;2024-03-17T14:51:21;2.90;;;1.33;;
24685;SDS011;12804;51.176;4.452;2024-03-17T14:53:47;3.03;;;1.35;;
24685;SDS011;12804;51.176;4.452;2024-03-17T14:56:17;1.85;;;1.05;;
24685;SDS011;12804;51.176;4.452;2024-03-17T14:58:44;4.22;;;1.50;;
24685;SDS011;12804;51.176;4.452;2024-03-17T15:01:12;2.40;;;0.98;;
24685;SDS011;12804;51.176;4.452;2024-03-17T15:03:38;6.80;;;1.98;;
24685;SDS011;12804;51.176;4.452;2024-03-17T15:06:13;2.92;;;1.27;;
24685;SDS011;12804;51.176;4.452;2024-03-17T15:08:40;5.72;;;1.60;;
24685;SDS011;12804;51.176;4.452;2024-03-17T15:11:09;3.17;;;1.20;;
24685;SDS011;12804;51.176;4.452;2024-03-17T15:13:35;3.42;;;1.20;;
24685;SDS011;12804;51.176;4.452;2024-03-17T15:16:02;4.60;;;1.70;;
24685;SDS011;12804;51.176;4.452;2024-03-17T15:18:31;4.55;;;1.42;;